sensor_id;sensor_type;location;lat;lon;timestamp;temperature;humidity
79301;SHT31;68755;51.984;5.646;2023-05-07T00:01:05;17.9;69.3
79301;SHT31;68755;51.984;5.646;2023-05-07T00:03:35;17.9;69.3
79301;SHT31;68755;51.984;5.646;2023-05-07T00:06:05;17.9;69.5
79301;SHT31;68755;51.984;5.646;2023-05-07T00:08:36;17.9;69.7
79301;SHT31;68755;51.984;5.646;2023-05-07T00:11:06;17.9;69.5
79301;SHT31;68755;51.984;5.646;2023-05-07T00:13:36;17.9;69.6
79301;SHT31;68755;51.984;5.646;2023-05-07T00:16:05;17.9;69.6
79301;SHT31;68755;51.984;5.646;2023-05-07T00:18:35;17.9;69.6
79301;SHT31;68755;51.984;5.646;2023-05-07T00:21:05;17.9;69.4
79301;SHT31;68755;51.984;5.646;2023-05-07T00:23:35;17.9;69.4
79301;SHT31;68755;51.984;5.646;2023-05-07T00:26:04;17.9;69.4
79301;SHT31;68755;51.984;5.646;2023-05-07T00:28:34;17.9;69.1
79301;SHT31;68755;51.984;5.646;2023-05-07T00:31:04;17.9;69.2
79301;SHT31;68755;51.984;5.646;2023-05-07T00:33:34;17.9;69.0
79301;SHT31;68755;51.984;5.646;2023-05-07T00:36:04;17.9;68.8
79301;SHT31;68755;51.984;5.646;2023-05-07T00:38:34;17.9;68.5
79301;SHT31;68755;51.984;5.646;2023-05-07T00:41:04;17.9;68.5
79301;SHT31;68755;51.984;5.646;2023-05-07T00:43:34;17.9;68.4
79301;SHT31;68755;51.984;5.646;2023-05-07T00:46:03;17.9;68.4
79301;SHT31;68755;51.984;5.646;2023-05-07T00:48:34;17.9;68.7
79301;SHT31;68755;51.984;5.646;2023-05-07T00:51:03;17.8;68.7
79301;SHT31;68755;51.984;5.646;2023-05-07T00:53:34;17.8;69.0
79301;SHT31;68755;51.984;5.646;2023-05-07T00:56:04;17.7;69.0
79301;SHT31;68755;51.984;5.646;2023-05-07T00:58:35;17.7;69.3
79301;SHT31;68755;51.984;5.646;2023-05-07T01:01:04;17.7;69.3
79301;SHT31;68755;51.984;5.646;2023-05-07T01:03:35;17.6;69.4
79301;SHT31;68755;51.984;5.646;2023-05-07T01:06:06;17.6;69.4
79301;SHT31;68755;51.984;5.646;2023-05-07T01:08:37;17.6;69.6
79301;SHT31;68755;51.984;5.646;2023-05-07T01:11:08;17.6;69.7
79301;SHT31;68755;51.984;5.646;2023-05-07T01:13:38;17.5;69.8
79301;SHT31;68755;51.984;5.646;2023-05-07T01:16:10;17.5;69.9
79301;SHT31;68755;51.984;5.646;2023-05-07T01:18:42;17.5;70.2
79301;SHT31;68755;51.984;5.646;2023-05-07T01:21:17;17.5;70.1
79301;SHT31;68755;51.984;5.646;2023-05-07T01:23:47;17.5;70.2
79301;SHT31;68755;51.984;5.646;2023-05-07T01:26:19;17.5;70.2
79301;SHT31;68755;51.984;5.646;2023-05-07T01:28:51;17.5;70.4
79301;SHT31;68755;51.984;5.646;2023-05-07T01:31:21;17.5;70.4
79301;SHT31;68755;51.984;5.646;2023-05-07T01:33:52;17.5;70.2
79301;SHT31;68755;51.984;5.646;2023-05-07T01:36:24;17.5;70.3
79301;SHT31;68755;51.984;5.646;2023-05-07T01:38:55;17.5;70.2
79301;SHT31;68755;51.984;5.646;2023-05-07T01:41:27;17.5;70.1
79301;SHT31;68755;51.984;5.646;2023-05-07T01:43:58;17.5;70.2
79301;SHT31;68755;51.984;5.646;2023-05-07T01:46:28;17.5;70.0
79301;SHT31;68755;51.984;5.646;2023-05-07T01:48:59;17.5;69.9
79301;SHT31;68755;51.984;5.646;2023-05-07T01:51:29;17.5;70.1
79301;SHT31;68755;51.984;5.646;2023-05-07T01:53:59;17.5;69.8
79301;SHT31;68755;51.984;5.646;2023-05-07T01:56:28;17.5;69.9
79301;SHT31;68755;51.984;5.646;2023-05-07T01:58:58;17.5;69.7
79301;SHT31;68755;51.984;5.646;2023-05-07T02:01:28;17.5;69.9
79301;SHT31;68755;51.984;5.646;2023-05-07T02:03:57;17.5;70.0
79301;SHT31;68755;51.984;5.646;2023-05-07T02:06:29;17.5;69.8
79301;SHT31;68755;51.984;5.646;2023-05-07T02:08:59;17.5;69.8
79301;SHT31;68755;51.984;5.646;2023-05-07T02:11:29;17.5;69.7
79301;SHT31;68755;51.984;5.646;2023-05-07T02:13:58;17.5;69.7
79301;SHT31;68755;51.984;5.646;2023-05-07T02:16:28;17.5;69.5
79301;SHT31;68755;51.984;5.646;2023-05-07T02:18:58;17.5;69.5
79301;SHT31;68755;51.984;5.646;2023-05-07T02:21:27;17.5;69.5
79301;SHT31;68755;51.984;5.646;2023-05-07T02:23:57;17.5;69.4
79301;SHT31;68755;51.984;5.646;2023-05-07T02:26:27;17.5;69.3
79301;SHT31;68755;51.984;5.646;2023-05-07T02:28:57;17.5;69.3
79301;SHT31;68755;51.984;5.646;2023-05-07T02:31:26;17.5;69.3
79301;SHT31;68755;51.984;5.646;2023-05-07T02:33:56;17.5;69.7
79301;SHT31;68755;51.984;5.646;2023-05-07T02:36:26;17.5;70.1
79301;SHT31;68755;51.984;5.646;2023-05-07T02:38:58;17.5;70.0
79301;SHT31;68755;51.984;5.646;2023-05-07T02:41:27;17.5;70.4
79301;SHT31;68755;51.984;5.646;2023-05-07T02:43:57;17.5;70.6
79301;SHT31;68755;51.984;5.646;2023-05-07T02:46:26;17.5;70.9
79301;SHT31;68755;51.984;5.646;2023-05-07T02:48:56;17.5;70.5
79301;SHT31;68755;51.984;5.646;2023-05-07T02:51:26;17.5;70.8
79301;SHT31;68755;51.984;5.646;2023-05-07T02:53:56;17.5;71.0
79301;SHT31;68755;51.984;5.646;2023-05-07T02:56:27;17.5;71.0
79301;SHT31;68755;51.984;5.646;2023-05-07T02:58:57;17.5;71.1
79301;SHT31;68755;51.984;5.646;2023-05-07T03:01:26;17.4;71.3
79301;SHT31;68755;51.984;5.646;2023-05-07T03:03:56;17.4;70.8
79301;SHT31;68755;51.984;5.646;2023-05-07T03:06:25;17.4;70.5
79301;SHT31;68755;51.984;5.646;2023-05-07T03:08:55;17.4;70.3
79301;SHT31;68755;51.984;5.646;2023-05-07T03:11:24;17.4;70.2
79301;SHT31;68755;51.984;5.646;2023-05-07T03:13:54;17.4;70.0
79301;SHT31;68755;51.984;5.646;2023-05-07T03:16:24;17.3;69.8
79301;SHT31;68755;51.984;5.646;2023-05-07T03:18:54;17.3;69.8
79301;SHT31;68755;51.984;5.646;2023-05-07T03:21:24;17.3;69.6
79301;SHT31;68755;51.984;5.646;2023-05-07T03:23:53;17.3;69.5
79301;SHT31;68755;51.984;5.646;2023-05-07T03:26:23;17.2;69.8
79301;SHT31;68755;51.984;5.646;2023-05-07T03:28:53;17.2;69.9
79301;SHT31;68755;51.984;5.646;2023-05-07T03:31:22;17.2;69.8
79301;SHT31;68755;51.984;5.646;2023-05-07T03:33:53;17.2;70.1
79301;SHT31;68755;51.984;5.646;2023-05-07T03:36:24;17.1;70.1
79301;SHT31;68755;51.984;5.646;2023-05-07T03:38:54;17.1;70.2
79301;SHT31;68755;51.984;5.646;2023-05-07T03:41:23;17.1;70.1
79301;SHT31;68755;51.984;5.646;2023-05-07T03:43:53;17.1;70.2
79301;SHT31;68755;51.984;5.646;2023-05-07T03:46:23;17.1;70.0
79301;SHT31;68755;51.984;5.646;2023-05-07T03:48:53;17.1;70.1
79301;SHT31;68755;51.984;5.646;2023-05-07T03:51:23;17.1;70.1
79301;SHT31;68755;51.984;5.646;2023-05-07T03:53:53;17.1;70.0
79301;SHT31;68755;51.984;5.646;2023-05-07T03:56:24;17.1;70.1
79301;SHT31;68755;51.984;5.646;2023-05-07T03:58:55;17.1;70.3
79301;SHT31;68755;51.984;5.646;2023-05-07T04:01:24;17.1;70.3
79301;SHT31;68755;51.984;5.646;2023-05-07T04:03:54;17.1;70.5
79301;SHT31;68755;51.984;5.646;2023-05-07T04:06:24;17.1;70.3
79301;SHT31;68755;51.984;5.646;2023-05-07T04:08:54;17.1;70.5
79301;SHT31;68755;51.984;5.646;2023-05-07T04:11:24;17.1;70.6
79301;SHT31;68755;51.984;5.646;2023-05-07T04:13:54;17.1;70.6
79301;SHT31;68755;51.984;5.646;2023-05-07T04:16:24;17.1;70.9
79301;SHT31;68755;51.984;5.646;2023-05-07T04:18:53;17.1;70.8
79301;SHT31;68755;51.984;5.646;2023-05-07T04:21:23;17.1;70.8
79301;SHT31;68755;51.984;5.646;2023-05-07T04:23:53;17.1;70.7
79301;SHT31;68755;51.984;5.646;2023-05-07T04:26:23;17.1;70.9
79301;SHT31;68755;51.984;5.646;2023-05-07T04:28:53;17.1;70.9
79301;SHT31;68755;51.984;5.646;2023-05-07T04:31:23;17.1;71.1
79301;SHT31;68755;51.984;5.646;2023-05-07T04:33:55;17.1;71.0
79301;SHT31;68755;51.984;5.646;2023-05-07T04:36:24;17.1;71.1
79301;SHT31;68755;51.984;5.646;2023-05-07T04:38:56;17.1;71.1
79301;SHT31;68755;51.984;5.646;2023-05-07T04:41:26;17.1;70.8
79301;SHT31;68755;51.984;5.646;2023-05-07T04:43:56;17.1;70.9
79301;SHT31;68755;51.984;5.646;2023-05-07T04:46:26;17.1;70.9
79301;SHT31;68755;51.984;5.646;2023-05-07T04:48:55;17.1;71.2
79301;SHT31;68755;51.984;5.646;2023-05-07T04:51:25;17.1;70.9
79301;SHT31;68755;51.984;5.646;2023-05-07T04:53:55;17.1;70.8
79301;SHT31;68755;51.984;5.646;2023-05-07T04:56:27;17.1;71.0
79301;SHT31;68755;51.984;5.646;2023-05-07T04:58:57;17.1;71.1
79301;SHT31;68755;51.984;5.646;2023-05-07T05:01:27;17.1;71.0
79301;SHT31;68755;51.984;5.646;2023-05-07T05:03:57;17.1;71.0
79301;SHT31;68755;51.984;5.646;2023-05-07T05:06:27;17.1;71.2
79301;SHT31;68755;51.984;5.646;2023-05-07T05:08:58;17.0;71.3
79301;SHT31;68755;51.984;5.646;2023-05-07T05:11:27;17.0;71.5
79301;SHT31;68755;51.984;5.646;2023-05-07T05:13:59;17.0;71.5
79301;SHT31;68755;51.984;5.646;2023-05-07T05:16:29;17.0;71.7
79301;SHT31;68755;51.984;5.646;2023-05-07T05:19:01;17.0;71.9
79301;SHT31;68755;51.984;5.646;2023-05-07T05:21:31;17.0;72.0
79301;SHT31;68755;51.984;5.646;2023-05-07T05:24:01;17.0;72.0
79301;SHT31;68755;51.984;5.646;2023-05-07T05:26:30;17.0;72.2
79301;SHT31;68755;51.984;5.646;2023-05-07T05:29:02;17.0;72.2
79301;SHT31;68755;51.984;5.646;2023-05-07T05:31:31;16.9;72.1
79301;SHT31;68755;51.984;5.646;2023-05-07T05:34:02;16.9;72.3
79301;SHT31;68755;51.984;5.646;2023-05-07T05:36:31;16.9;72.3
79301;SHT31;68755;51.984;5.646;2023-05-07T05:39:01;16.9;72.5
79301;SHT31;68755;51.984;5.646;2023-05-07T05:41:31;16.9;72.7
79301;SHT31;68755;51.984;5.646;2023-05-07T05:44:00;16.9;72.6
79301;SHT31;68755;51.984;5.646;2023-05-07T05:46:30;16.9;73.0
79301;SHT31;68755;51.984;5.646;2023-05-07T05:49:00;16.9;72.8
79301;SHT31;68755;51.984;5.646;2023-05-07T05:51:29;16.9;73.2
79301;SHT31;68755;51.984;5.646;2023-05-07T05:53:59;16.9;73.0
79301;SHT31;68755;51.984;5.646;2023-05-07T05:56:28;16.9;73.1
79301;SHT31;68755;51.984;5.646;2023-05-07T05:58:58;16.9;73.1
79301;SHT31;68755;51.984;5.646;2023-05-07T06:01:31;16.9;73.2
79301;SHT31;68755;51.984;5.646;2023-05-07T06:04:01;16.9;73.3
79301;SHT31;68755;51.984;5.646;2023-05-07T06:06:31;16.9;73.2
79301;SHT31;68755;51.984;5.646;2023-05-07T06:09:01;17.0;73.2
79301;SHT31;68755;51.984;5.646;2023-05-07T06:11:31;17.0;73.2
79301;SHT31;68755;51.984;5.646;2023-05-07T06:14:01;17.0;73.3
79301;SHT31;68755;51.984;5.646;2023-05-07T06:16:30;17.0;73.3
79301;SHT31;68755;51.984;5.646;2023-05-07T06:19:00;17.0;73.3
79301;SHT31;68755;51.984;5.646;2023-05-07T06:21:30;17.0;73.1
79301;SHT31;68755;51.984;5.646;2023-05-07T06:24:00;17.0;73.6
79301;SHT31;68755;51.984;5.646;2023-05-07T06:26:29;17.0;73.8
79301;SHT31;68755;51.984;5.646;2023-05-07T06:28:59;17.0;73.6
79301;SHT31;68755;51.984;5.646;2023-05-07T06:31:30;17.0;73.6
79301;SHT31;68755;51.984;5.646;2023-05-07T06:34:03;17.0;73.3
79301;SHT31;68755;51.984;5.646;2023-05-07T06:36:33;17.1;73.4
79301;SHT31;68755;51.984;5.646;2023-05-07T06:39:03;17.1;73.3
79301;SHT31;68755;51.984;5.646;2023-05-07T06:41:32;17.1;73.6
79301;SHT31;68755;51.984;5.646;2023-05-07T06:44:03;17.1;73.4
79301;SHT31;68755;51.984;5.646;2023-05-07T06:46:32;17.1;73.6
79301;SHT31;68755;51.984;5.646;2023-05-07T06:49:02;17.1;74.1
79301;SHT31;68755;51.984;5.646;2023-05-07T06:51:32;17.1;74.1
79301;SHT31;68755;51.984;5.646;2023-05-07T06:54:02;17.2;73.9
79301;SHT31;68755;51.984;5.646;2023-05-07T06:56:33;17.2;73.9
79301;SHT31;68755;51.984;5.646;2023-05-07T06:59:03;17.2;74.2
79301;SHT31;68755;51.984;5.646;2023-05-07T07:01:33;17.2;74.1
79301;SHT31;68755;51.984;5.646;2023-05-07T07:04:02;17.3;73.9
79301;SHT31;68755;51.984;5.646;2023-05-07T07:06:32;17.3;74.4
79301;SHT31;68755;51.984;5.646;2023-05-07T07:09:04;17.3;74.1
79301;SHT31;68755;51.984;5.646;2023-05-07T07:11:34;17.3;73.4
79301;SHT31;68755;51.984;5.646;2023-05-07T07:14:05;17.4;73.6
79301;SHT31;68755;51.984;5.646;2023-05-07T07:16:34;17.4;73.7
79301;SHT31;68755;51.984;5.646;2023-05-07T07:19:04;17.4;73.8
79301;SHT31;68755;51.984;5.646;2023-05-07T07:21:36;17.4;73.0
79301;SHT31;68755;51.984;5.646;2023-05-07T07:24:06;17.5;73.6
79301;SHT31;68755;51.984;5.646;2023-05-07T07:26:36;17.5;73.3
79301;SHT31;68755;51.984;5.646;2023-05-07T07:29:07;17.5;73.7
79301;SHT31;68755;51.984;5.646;2023-05-07T07:31:37;17.5;73.5
79301;SHT31;68755;51.984;5.646;2023-05-07T07:34:06;17.5;73.7
79301;SHT31;68755;51.984;5.646;2023-05-07T07:36:36;17.5;73.5
79301;SHT31;68755;51.984;5.646;2023-05-07T07:39:06;17.6;73.6
79301;SHT31;68755;51.984;5.646;2023-05-07T07:41:36;17.6;73.5
79301;SHT31;68755;51.984;5.646;2023-05-07T07:44:06;17.6;73.5
79301;SHT31;68755;51.984;5.646;2023-05-07T07:46:36;17.6;73.4
79301;SHT31;68755;51.984;5.646;2023-05-07T07:49:05;17.6;73.6
79301;SHT31;68755;51.984;5.646;2023-05-07T07:51:35;17.7;73.9
79301;SHT31;68755;51.984;5.646;2023-05-07T07:54:05;17.7;73.6
79301;SHT31;68755;51.984;5.646;2023-05-07T07:56:35;17.7;73.8
79301;SHT31;68755;51.984;5.646;2023-05-07T07:59:04;17.7;73.3
79301;SHT31;68755;51.984;5.646;2023-05-07T08:01:34;17.8;73.3
79301;SHT31;68755;51.984;5.646;2023-05-07T08:04:04;17.8;73.4
79301;SHT31;68755;51.984;5.646;2023-05-07T08:06:36;17.8;73.6
79301;SHT31;68755;51.984;5.646;2023-05-07T08:09:06;17.8;74.2
79301;SHT31;68755;51.984;5.646;2023-05-07T08:11:36;17.9;73.8
79301;SHT31;68755;51.984;5.646;2023-05-07T08:14:06;18.0;73.1
79301;SHT31;68755;51.984;5.646;2023-05-07T08:16:36;18.0;72.9
79301;SHT31;68755;51.984;5.646;2023-05-07T08:19:06;18.1;72.7
79301;SHT31;68755;51.984;5.646;2023-05-07T08:21:39;18.2;72.6
79301;SHT31;68755;51.984;5.646;2023-05-07T08:24:10;18.2;72.0
79301;SHT31;68755;51.984;5.646;2023-05-07T08:26:40;18.2;72.2
79301;SHT31;68755;51.984;5.646;2023-05-07T08:29:10;18.3;72.0
79301;SHT31;68755;51.984;5.646;2023-05-07T08:31:40;18.3;71.8
79301;SHT31;68755;51.984;5.646;2023-05-07T08:34:11;18.3;72.6
79301;SHT31;68755;51.984;5.646;2023-05-07T08:36:41;18.3;73.0
79301;SHT31;68755;51.984;5.646;2023-05-07T08:39:11;18.3;72.9
79301;SHT31;68755;51.984;5.646;2023-05-07T08:41:44;18.3;73.1
79301;SHT31;68755;51.984;5.646;2023-05-07T08:44:18;18.3;73.6
79301;SHT31;68755;51.984;5.646;2023-05-07T08:46:52;18.4;73.5
79301;SHT31;68755;51.984;5.646;2023-05-07T08:49:23;18.4;72.8
79301;SHT31;68755;51.984;5.646;2023-05-07T08:51:53;18.4;73.4
79301;SHT31;68755;51.984;5.646;2023-05-07T08:54:24;18.4;72.7
79301;SHT31;68755;51.984;5.646;2023-05-07T08:56:55;18.5;73.2
79301;SHT31;68755;51.984;5.646;2023-05-07T08:59:25;18.5;73.7
79301;SHT31;68755;51.984;5.646;2023-05-07T09:01:55;18.6;72.8
79301;SHT31;68755;51.984;5.646;2023-05-07T09:04:25;18.6;71.2
79301;SHT31;68755;51.984;5.646;2023-05-07T09:06:56;18.7;71.0
79301;SHT31;68755;51.984;5.646;2023-05-07T09:09:32;18.7;70.8
79301;SHT31;68755;51.984;5.646;2023-05-07T09:12:02;18.8;70.3
79301;SHT31;68755;51.984;5.646;2023-05-07T09:14:32;18.8;70.9
79301;SHT31;68755;51.984;5.646;2023-05-07T09:17:02;18.9;70.8
79301;SHT31;68755;51.984;5.646;2023-05-07T09:19:31;18.9;71.7
79301;SHT31;68755;51.984;5.646;2023-05-07T09:22:02;19.0;69.8
79301;SHT31;68755;51.984;5.646;2023-05-07T09:24:34;19.1;68.8
79301;SHT31;68755;51.984;5.646;2023-05-07T09:27:06;19.1;69.1
79301;SHT31;68755;51.984;5.646;2023-05-07T09:29:43;19.2;69.6
79301;SHT31;68755;51.984;5.646;2023-05-07T09:32:14;19.2;68.6
79301;SHT31;68755;51.984;5.646;2023-05-07T09:34:44;19.3;68.1
79301;SHT31;68755;51.984;5.646;2023-05-07T09:37:15;19.3;67.4
79301;SHT31;68755;51.984;5.646;2023-05-07T09:39:47;19.4;66.5
79301;SHT31;68755;51.984;5.646;2023-05-07T09:42:26;19.4;65.9
79301;SHT31;68755;51.984;5.646;2023-05-07T09:44:56;19.4;65.7
79301;SHT31;68755;51.984;5.646;2023-05-07T09:47:32;19.5;65.6
79301;SHT31;68755;51.984;5.646;2023-05-07T09:50:06;19.5;65.6
79301;SHT31;68755;51.984;5.646;2023-05-07T09:52:40;19.5;65.2
79301;SHT31;68755;51.984;5.646;2023-05-07T09:55:12;19.5;64.8
79301;SHT31;68755;51.984;5.646;2023-05-07T09:57:43;19.6;64.6
79301;SHT31;68755;51.984;5.646;2023-05-07T10:00:17;19.6;64.7
79301;SHT31;68755;51.984;5.646;2023-05-07T10:02:50;19.6;64.2
79301;SHT31;68755;51.984;5.646;2023-05-07T10:05:21;19.7;64.2
79301;SHT31;68755;51.984;5.646;2023-05-07T10:07:53;19.7;64.0
79301;SHT31;68755;51.984;5.646;2023-05-07T10:10:24;19.8;64.6
79301;SHT31;68755;51.984;5.646;2023-05-07T10:12:54;19.8;63.8
79301;SHT31;68755;51.984;5.646;2023-05-07T10:15:26;19.9;64.0
79301;SHT31;68755;51.984;5.646;2023-05-07T10:17:58;19.9;63.3
79301;SHT31;68755;51.984;5.646;2023-05-07T10:20:30;19.9;63.3
79301;SHT31;68755;51.984;5.646;2023-05-07T10:23:04;20.0;63.2
79301;SHT31;68755;51.984;5.646;2023-05-07T10:25:34;20.0;62.0
79301;SHT31;68755;51.984;5.646;2023-05-07T10:28:07;20.1;61.9
79301;SHT31;68755;51.984;5.646;2023-05-07T10:30:48;20.1;62.8
79301;SHT31;68755;51.984;5.646;2023-05-07T10:33:26;20.1;63.3
79301;SHT31;68755;51.984;5.646;2023-05-07T10:35:59;20.2;62.6
79301;SHT31;68755;51.984;5.646;2023-05-07T10:38:31;20.2;62.9
79301;SHT31;68755;51.984;5.646;2023-05-07T10:41:02;20.3;62.9
79301;SHT31;68755;51.984;5.646;2023-05-07T10:43:43;20.3;61.6
79301;SHT31;68755;51.984;5.646;2023-05-07T10:46:17;20.3;62.0
79301;SHT31;68755;51.984;5.646;2023-05-07T10:49:09;20.4;63.2
79301;SHT31;68755;51.984;5.646;2023-05-07T10:51:39;20.4;61.3
79301;SHT31;68755;51.984;5.646;2023-05-07T10:54:24;20.5;61.3
79301;SHT31;68755;51.984;5.646;2023-05-07T10:56:54;20.5;61.3
79301;SHT31;68755;51.984;5.646;2023-05-07T10:59:41;20.6;62.0
79301;SHT31;68755;51.984;5.646;2023-05-07T11:02:11;20.6;63.0
79301;SHT31;68755;51.984;5.646;2023-05-07T11:04:42;20.7;62.5
79301;SHT31;68755;51.984;5.646;2023-05-07T11:07:33;20.8;59.9
79301;SHT31;68755;51.984;5.646;2023-05-07T11:10:04;20.9;58.8
79301;SHT31;68755;51.984;5.646;2023-05-07T11:12:51;20.9;58.7
79301;SHT31;68755;51.984;5.646;2023-05-07T11:15:41;21.0;60.4
79301;SHT31;68755;51.984;5.646;2023-05-07T11:18:14;21.0;60.6
79301;SHT31;68755;51.984;5.646;2023-05-07T11:20:55;21.1;60.2
79301;SHT31;68755;51.984;5.646;2023-05-07T11:23:57;21.2;59.9
79301;SHT31;68755;51.984;5.646;2023-05-07T11:26:29;21.2;59.3
79301;SHT31;68755;51.984;5.646;2023-05-07T11:29:00;21.3;59.4
79301;SHT31;68755;51.984;5.646;2023-05-07T11:31:31;21.3;59.4
79301;SHT31;68755;51.984;5.646;2023-05-07T11:34:01;21.4;58.7
79301;SHT31;68755;51.984;5.646;2023-05-07T11:36:33;21.4;58.3
79301;SHT31;68755;51.984;5.646;2023-05-07T11:39:02;21.5;58.8
79301;SHT31;68755;51.984;5.646;2023-05-07T11:41:36;21.5;59.1
79301;SHT31;68755;51.984;5.646;2023-05-07T11:44:06;21.6;58.8
79301;SHT31;68755;51.984;5.646;2023-05-07T11:46:36;21.6;59.6
79301;SHT31;68755;51.984;5.646;2023-05-07T11:49:06;21.7;58.3
79301;SHT31;68755;51.984;5.646;2023-05-07T11:51:35;21.7;58.2
79301;SHT31;68755;51.984;5.646;2023-05-07T11:54:06;21.8;57.9
79301;SHT31;68755;51.984;5.646;2023-05-07T11:56:38;21.8;58.6
79301;SHT31;68755;51.984;5.646;2023-05-07T11:59:08;21.9;58.3
79301;SHT31;68755;51.984;5.646;2023-05-07T12:01:38;21.9;59.1
79301;SHT31;68755;51.984;5.646;2023-05-07T12:04:07;22.0;58.0
79301;SHT31;68755;51.984;5.646;2023-05-07T12:06:38;22.0;57.3
79301;SHT31;68755;51.984;5.646;2023-05-07T12:09:08;22.0;57.7
79301;SHT31;68755;51.984;5.646;2023-05-07T12:11:39;22.0;58.5
79301;SHT31;68755;51.984;5.646;2023-05-07T12:14:09;22.1;58.6
79301;SHT31;68755;51.984;5.646;2023-05-07T12:16:40;22.1;56.9
79301;SHT31;68755;51.984;5.646;2023-05-07T12:19:10;22.1;55.8
79301;SHT31;68755;51.984;5.646;2023-05-07T12:21:41;22.1;55.9
79301;SHT31;68755;51.984;5.646;2023-05-07T12:24:13;22.1;56.5
79301;SHT31;68755;51.984;5.646;2023-05-07T12:26:43;22.1;57.3
79301;SHT31;68755;51.984;5.646;2023-05-07T12:29:13;22.1;56.2
79301;SHT31;68755;51.984;5.646;2023-05-07T12:31:43;22.2;54.1
79301;SHT31;68755;51.984;5.646;2023-05-07T12:34:13;22.2;54.4
79301;SHT31;68755;51.984;5.646;2023-05-07T12:36:45;22.2;54.4
79301;SHT31;68755;51.984;5.646;2023-05-07T12:39:17;22.3;54.1
79301;SHT31;68755;51.984;5.646;2023-05-07T12:42:05;22.3;53.7
79301;SHT31;68755;51.984;5.646;2023-05-07T12:44:35;22.4;55.0
79301;SHT31;68755;51.984;5.646;2023-05-07T12:47:05;22.5;54.8
79301;SHT31;68755;51.984;5.646;2023-05-07T12:49:38;22.5;55.2
79301;SHT31;68755;51.984;5.646;2023-05-07T12:52:11;22.6;53.2
79301;SHT31;68755;51.984;5.646;2023-05-07T12:54:41;22.6;53.4
79301;SHT31;68755;51.984;5.646;2023-05-07T12:57:11;22.6;53.8
79301;SHT31;68755;51.984;5.646;2023-05-07T12:59:41;22.6;54.7
79301;SHT31;68755;51.984;5.646;2023-05-07T13:02:11;22.6;55.4
79301;SHT31;68755;51.984;5.646;2023-05-07T13:04:46;22.6;54.7
79301;SHT31;68755;51.984;5.646;2023-05-07T13:07:15;22.6;54.0
79301;SHT31;68755;51.984;5.646;2023-05-07T13:09:45;22.6;53.7
79301;SHT31;68755;51.984;5.646;2023-05-07T13:12:16;22.6;53.4
79301;SHT31;68755;51.984;5.646;2023-05-07T13:14:46;22.6;53.7
79301;SHT31;68755;51.984;5.646;2023-05-07T13:17:16;22.6;53.9
79301;SHT31;68755;51.984;5.646;2023-05-07T13:19:45;22.6;53.8
79301;SHT31;68755;51.984;5.646;2023-05-07T13:22:15;22.7;54.9
79301;SHT31;68755;51.984;5.646;2023-05-07T13:24:45;22.7;54.7
79301;SHT31;68755;51.984;5.646;2023-05-07T13:27:15;22.7;54.6
79301;SHT31;68755;51.984;5.646;2023-05-07T13:29:46;22.7;52.5
79301;SHT31;68755;51.984;5.646;2023-05-07T13:32:15;22.8;53.5
79301;SHT31;68755;51.984;5.646;2023-05-07T13:34:46;22.8;51.0
79301;SHT31;68755;51.984;5.646;2023-05-07T13:37:15;22.8;52.0
79301;SHT31;68755;51.984;5.646;2023-05-07T13:39:45;22.9;53.1
79301;SHT31;68755;51.984;5.646;2023-05-07T13:42:15;22.9;52.9
79301;SHT31;68755;51.984;5.646;2023-05-07T13:44:44;22.9;52.4
79301;SHT31;68755;51.984;5.646;2023-05-07T13:47:14;22.9;51.1
79301;SHT31;68755;51.984;5.646;2023-05-07T13:49:43;22.9;50.9
79301;SHT31;68755;51.984;5.646;2023-05-07T13:52:15;22.9;51.9
79301;SHT31;68755;51.984;5.646;2023-05-07T13:54:45;22.9;52.0
79301;SHT31;68755;51.984;5.646;2023-05-07T13:57:14;22.9;52.8
79301;SHT31;68755;51.984;5.646;2023-05-07T13:59:44;23.0;52.0
79301;SHT31;68755;51.984;5.646;2023-05-07T14:02:14;23.0;51.3
79301;SHT31;68755;51.984;5.646;2023-05-07T14:04:44;23.0;52.1
79301;SHT31;68755;51.984;5.646;2023-05-07T14:07:15;23.0;51.8
79301;SHT31;68755;51.984;5.646;2023-05-07T14:09:45;23.0;51.0
79301;SHT31;68755;51.984;5.646;2023-05-07T14:12:15;23.1;52.2
79301;SHT31;68755;51.984;5.646;2023-05-07T14:14:47;23.1;52.9
79301;SHT31;68755;51.984;5.646;2023-05-07T14:17:17;23.1;52.5
79301;SHT31;68755;51.984;5.646;2023-05-07T14:19:50;23.1;53.3
79301;SHT31;68755;51.984;5.646;2023-05-07T14:22:21;23.1;53.6
79301;SHT31;68755;51.984;5.646;2023-05-07T14:24:52;23.1;53.7
79301;SHT31;68755;51.984;5.646;2023-05-07T14:27:22;23.2;54.3
79301;SHT31;68755;51.984;5.646;2023-05-07T14:29:51;23.2;54.0
79301;SHT31;68755;51.984;5.646;2023-05-07T14:32:21;23.2;53.9
79301;SHT31;68755;51.984;5.646;2023-05-07T14:34:51;23.2;53.9
79301;SHT31;68755;51.984;5.646;2023-05-07T14:37:21;23.2;54.0
79301;SHT31;68755;51.984;5.646;2023-05-07T14:39:51;23.2;53.3
79301;SHT31;68755;51.984;5.646;2023-05-07T14:42:21;23.2;53.9
79301;SHT31;68755;51.984;5.646;2023-05-07T14:44:51;23.2;53.8
79301;SHT31;68755;51.984;5.646;2023-05-07T14:47:20;23.2;54.4
79301;SHT31;68755;51.984;5.646;2023-05-07T14:49:50;23.2;54.3
79301;SHT31;68755;51.984;5.646;2023-05-07T14:52:20;23.3;53.2
79301;SHT31;68755;51.984;5.646;2023-05-07T14:54:52;23.2;53.3
79301;SHT31;68755;51.984;5.646;2023-05-07T14:57:24;23.2;53.9
79301;SHT31;68755;51.984;5.646;2023-05-07T14:59:55;23.2;54.7
79301;SHT31;68755;51.984;5.646;2023-05-07T15:02:27;23.3;54.2
79301;SHT31;68755;51.984;5.646;2023-05-07T15:04:56;23.3;54.4
79301;SHT31;68755;51.984;5.646;2023-05-07T15:07:26;23.3;53.5
79301;SHT31;68755;51.984;5.646;2023-05-07T15:09:58;23.3;53.4
79301;SHT31;68755;51.984;5.646;2023-05-07T15:12:28;23.3;53.9
79301;SHT31;68755;51.984;5.646;2023-05-07T15:14:58;23.3;54.2
79301;SHT31;68755;51.984;5.646;2023-05-07T15:17:27;23.3;54.0
79301;SHT31;68755;51.984;5.646;2023-05-07T15:19:57;23.3;54.2
79301;SHT31;68755;51.984;5.646;2023-05-07T15:22:27;23.2;54.0
79301;SHT31;68755;51.984;5.646;2023-05-07T15:24:56;23.2;54.1
79301;SHT31;68755;51.984;5.646;2023-05-07T15:27:26;23.2;53.1
79301;SHT31;68755;51.984;5.646;2023-05-07T15:29:55;23.1;52.9
79301;SHT31;68755;51.984;5.646;2023-05-07T15:32:25;23.0;52.8
79301;SHT31;68755;51.984;5.646;2023-05-07T15:34:55;23.0;51.9
79301;SHT31;68755;51.984;5.646;2023-05-07T15:37:24;22.9;51.2
79301;SHT31;68755;51.984;5.646;2023-05-07T15:39:56;22.7;51.8
79301;SHT31;68755;51.984;5.646;2023-05-07T15:42:26;22.6;52.7
79301;SHT31;68755;51.984;5.646;2023-05-07T15:44:55;22.5;53.0
79301;SHT31;68755;51.984;5.646;2023-05-07T15:47:27;22.4;53.7
79301;SHT31;68755;51.984;5.646;2023-05-07T15:49:57;22.3;54.9
79301;SHT31;68755;51.984;5.646;2023-05-07T15:52:26;22.2;55.9
79301;SHT31;68755;51.984;5.646;2023-05-07T15:54:57;22.2;57.4
79301;SHT31;68755;51.984;5.646;2023-05-07T15:57:26;22.1;58.5
79301;SHT31;68755;51.984;5.646;2023-05-07T15:59:57;22.0;59.1
79301;SHT31;68755;51.984;5.646;2023-05-07T16:02:26;21.9;59.5
79301;SHT31;68755;51.984;5.646;2023-05-07T16:04:58;21.8;59.9
79301;SHT31;68755;51.984;5.646;2023-05-07T16:07:27;21.7;60.3
79301;SHT31;68755;51.984;5.646;2023-05-07T16:09:57;21.7;61.2
79301;SHT31;68755;51.984;5.646;2023-05-07T16:12:26;21.6;60.9
79301;SHT31;68755;51.984;5.646;2023-05-07T16:14:56;21.5;59.9
79301;SHT31;68755;51.984;5.646;2023-05-07T16:17:28;21.4;59.6
79301;SHT31;68755;51.984;5.646;2023-05-07T16:19:57;21.3;58.8
79301;SHT31;68755;51.984;5.646;2023-05-07T16:22:28;21.2;59.6
79301;SHT31;68755;51.984;5.646;2023-05-07T16:24:58;21.1;60.6